X  Κλείσε Στοιχεία αεροπορικών μετεωρολογικών δεδομένων METAR     EDVE Braunschweig-Wolfsburg Airport
θερμοκρασία
15°C θερμοκρασία
7°C Σημείο δρόσου
59% Υγρασία



Ανεμος
5 KM/H
3 MPH
1 M/S
3 KTS



60°
AVA
Τρέχουσες συνθήκες

Μερικώς συννεφιασμένος Μερικώς συννεφιασμένος
πίεση 1021.92 (hPa) - 30.18 (inHg)
Ορατότητα 6.2 (μίλι) - 10 (km)
Aεροδρόμιο
Κωδικός αεροδρομίου EDVE

Τοποθεσία: Braunschweig-Wolfsburg Airport
Απόσταση: 35 (km)

Metar:
EDVE 201420Z 06003KT 020V120 9999 FEW036 15/07 Q1022

ώρα: 20-09-2021 16:20 CEST